Time;durP1;ratioP1;P1;durP2;ratioP2;P2;SDS_P1;SDS_P2;PMS_P1;PMS_P2;Temp;Humidity;BMP_temperature;BMP_pressure;BME280_temperature;BME280_humidity;BME280_pressure;Samples;Min_cycle;Max_cycle;Signal;HPM_P1;HPM_P2
2021/12/18 00:01:46;;;;;;;21.98;12.13;;;;;;;7.02;96.94;103980.38;5030985;28;20083;-62
2021/12/18 00:04:12;;;;;;;19.10;11.57;;;;;;;7.08;96.53;103977.50;5030628;28;20030;-62
2021/12/18 00:06:37;;;;;;;19.38;11.07;;;;;;;7.03;97.39;103976.81;5032089;28;20041;-62
2021/12/18 00:09:03;;;;;;;20.42;11.82;;;;;;;7.04;97.07;103979.41;5031258;28;20026;-62
2021/12/18 00:11:29;;;;;;;20.60;11.48;;;;;;;7.05;96.96;103975.00;5031854;28;20033;-62
2021/12/18 00:13:54;;;;;;;19.92;11.23;;;;;;;7.04;97.17;103973.25;5030917;28;20072;-62
2021/12/18 00:16:20;;;;;;;20.13;11.73;;;;;;;7.04;97.68;103967.97;5031630;28;20090;-62
2021/12/18 00:18:48;;;;;;;20.73;11.32;;;;;;;7.04;97.54;103967.97;5032117;28;20049;-62
2021/12/18 00:21:17;;;;;;;21.45;11.70;;;;;;;7.04;97.87;103968.84;5030808;28;20561;-62
2021/12/18 00:23:42;;;;;;;21.58;12.32;;;;;;;7.03;98.04;103971.56;5032021;28;20071;-62
2021/12/18 00:26:07;;;;;;;20.20;11.60;;;;;;;7.06;98.22;103974.91;5031664;28;20033;-62
2021/12/18 00:28:33;;;;;;;20.33;11.05;;;;;;;7.07;97.93;103967.88;5031099;28;20025;-62
2021/12/18 00:30:58;;;;;;;20.95;11.35;;;;;;;7.05;98.02;103960.00;5031387;28;20021;-62
2021/12/18 00:33:23;;;;;;;19.55;10.73;;;;;;;7.05;97.52;103965.28;5031566;28;20105;-62
2021/12/18 00:35:49;;;;;;;19.10;10.50;;;;;;;7.01;97.53;103958.44;5031297;28;20426;-62
2021/12/18 00:38:14;;;;;;;19.15;10.25;;;;;;;7.01;96.91;103958.44;5034873;28;20018;-62
2021/12/18 00:40:48;;;;;;;19.33;10.38;;;;;;;6.96;97.25;103955.13;5030429;28;20049;-62
2021/12/18 00:43:32;;;;;;;19.60;10.30;;;;;;;6.91;97.75;103957.06;5032160;28;20059;-62
2021/12/18 00:45:58;;;;;;;18.05;9.93;;;;;;;6.92;97.70;103957.03;5031278;28;20049;-62
2021/12/18 00:48:23;;;;;;;17.85;9.70;;;;;;;6.92;97.22;103953.50;5032075;28;20411;-62
2021/12/18 00:50:49;;;;;;;18.20;9.55;;;;;;;6.91;97.58;103952.63;5029693;28;20538;-62
2021/12/18 00:53:15;;;;;;;16.95;9.43;;;;;;;6.89;97.03;103948.34;5031683;28;20071;-62
2021/12/18 00:55:41;;;;;;;17.67;9.70;;;;;;;6.88;96.94;103949.25;5030244;28;20037;-61
2021/12/18 00:58:06;;;;;;;18.45;8.98;;;;;;;6.86;96.72;103950.19;5028480;28;20033;-62
2021/12/18 01:00:32;;;;;;;17.67;9.55;;;;;;;6.85;96.79;103945.84;5028671;28;20121;-62
2021/12/18 01:03:00;;;;;;;17.02;8.88;;;;;;;6.85;97.28;103943.19;5031095;28;20029;-62
2021/12/18 01:05:28;;;;;;;15.38;8.32;;;;;;;6.81;96.92;103936.31;5029655;28;20505;-62
2021/12/18 01:07:58;;;;;;;15.98;8.20;;;;;;;6.90;96.72;103945.66;5031257;28;20108;-62
2021/12/18 01:10:40;;;;;;;15.40;8.00;;;;;;;6.88;96.51;103947.50;5028095;28;20037;-62
2021/12/18 01:13:08;;;;;;;16.02;8.25;;;;;;;6.90;96.54;103939.53;5029792;28;20029;-62
2021/12/18 01:15:39;;;;;;;14.68;7.75;;;;;;;6.88;96.73;103941.34;5030098;28;20029;-62
2021/12/18 01:23:34;;;;;;;15.63;7.65;;;;;;;6.86;96.52;103934.38;5028293;28;20163;-62
2021/12/18 01:26:00;;;;;;;14.18;7.63;;;;;;;6.89;96.44;103932.50;5029880;28;20031;-62
2021/12/18 01:28:26;;;;;;;13.20;7.28;;;;;;;6.91;96.23;103930.69;5026056;28;20029;-62
2021/12/18 01:30:52;;;;;;;14.13;7.18;;;;;;;6.89;96.53;103935.16;5029229;28;20051;-62
2021/12/18 01:33:17;;;;;;;15.52;7.38;;;;;;;6.89;96.43;103932.50;5031036;28;20037;-62
2021/12/18 01:35:43;;;;;;;14.15;7.45;;;;;;;6.87;96.34;103935.22;5031005;28;20048;-62
2021/12/18 01:38:12;;;;;;;13.48;7.25;;;;;;;6.86;96.63;103944.91;5031053;28;20021;-62
2021/12/18 01:40:38;;;;;;;15.10;7.57;;;;;;;6.81;96.38;103944.22;5027516;28;20133;-62
2021/12/18 01:51:24;;;;;;;13.93;7.72;;;;;;;6.83;96.31;103950.31;5022789;28;20053;-62
2021/12/18 01:53:53;;;;;;;13.63;7.50;;;;;;;6.84;96.40;103948.53;5030032;28;20061;-62
2021/12/18 01:56:19;;;;;;;15.02;7.60;;;;;;;6.86;96.40;103957.25;5029912;28;20701;-62
2021/12/18 01:58:45;;;;;;;14.88;7.65;;;;;;;6.83;96.67;103950.31;5031326;28;20049;-62
2021/12/18 02:01:11;;;;;;;14.43;7.57;;;;;;;6.82;96.79;103953.84;5029510;28;20048;-62
2021/12/18 02:03:36;;;;;;;16.52;7.72;;;;;;;6.84;96.54;103962.59;5029996;28;20075;-62
2021/12/18 02:06:02;;;;;;;15.80;8.13;;;;;;;6.82;96.65;103955.66;5029829;28;20132;-62
2021/12/18 02:08:29;;;;;;;14.77;7.72;;;;;;;6.80;96.78;103960.97;5033805;28;20418;-62
2021/12/18 02:11:02;;;;;;;14.75;7.88;;;;;;;6.76;96.69;103964.66;5034100;28;20033;-62
2021/12/18 02:21:24;;;;;;;19.02;9.20;;;;;;;6.77;96.88;103955.84;5033207;28;20445;-62
2021/12/18 02:23:50;;;;;;;18.48;9.13;;;;;;;6.76;96.98;103953.25;5034227;28;20036;-62
2021/12/18 02:26:16;;;;;;;17.40;8.45;;;;;;;6.75;96.93;103949.75;5034486;28;20026;-62
2021/12/18 02:28:45;;;;;;;18.35;9.25;;;;;;;6.73;97.36;103948.97;5034335;28;20029;-62
2021/12/18 02:31:10;;;;;;;17.85;9.23;;;;;;;6.72;97.76;103941.97;5033760;28;20028;-62
2021/12/18 02:33:36;;;;;;;20.05;9.57;;;;;;;6.72;97.76;103941.97;5034498;28;20514;-62
2021/12/18 02:36:04;;;;;;;19.48;8.98;;;;;;;6.74;97.67;103934.84;5034183;28;20048;-62
2021/12/18 02:38:56;;;;;;;17.33;8.65;;;;;;;6.71;97.38;103937.63;5033830;28;20034;-62
2021/12/18 02:44:00;;;;;;;19.85;9.50;;;;;;;6.74;97.45;103934.84;5033868;28;20394;-62
2021/12/18 02:46:26;;;;;;;17.92;9.20;;;;;;;6.75;97.41;103931.28;5033791;28;20048;-62
2021/12/18 02:48:53;;;;;;;19.27;9.27;;;;;;;6.73;97.61;103925.22;5032433;28;20478;-62
2021/12/18 02:51:19;;;;;;;18.92;9.50;;;;;;;6.77;96.73;103937.38;5032635;28;20071;-62
2021/12/18 02:53:52;;;;;;;17.20;9.07;;;;;;;6.71;97.23;103925.28;5032943;28;20029;-62
2021/12/18 02:56:23;;;;;;;19.10;10.23;;;;;;;6.75;96.99;103930.44;5033326;28;20037;-62
2021/12/18 02:58:54;;;;;;;19.00;9.57;;;;;;;6.75;97.24;103920.72;5032911;28;20046;-62
2021/12/18 03:01:24;;;;;;;20.48;10.25;;;;;;;6.71;97.70;103919.16;5030132;28;20076;-62
2021/12/18 03:03:51;;;;;;;20.60;9.98;;;;;;;6.76;97.50;103916.31;5029642;28;20044;-62
2021/12/18 03:09:09;;;;;;;17.45;9.55;;;;;;;6.70;97.39;103920.91;5031524;28;20041;-61
2021/12/18 03:27:15;;;;;;;18.73;9.65;;;;;;;6.69;97.85;103898.09;5032844;28;20049;-62
2021/12/18 03:29:41;;;;;;;18.58;9.45;;;;;;;6.71;98.27;103905.97;5032617;28;20034;-62
2021/12/18 03:32:06;;;;;;;17.98;9.65;;;;;;;6.71;98.03;103903.31;5032196;28;20029;-62
2021/12/18 03:34:32;;;;;;;18.55;10.05;;;;;;;6.70;97.99;103904.22;5031870;28;20629;-62
2021/12/18 03:36:57;;;;;;;18.15;10.20;;;;;;;6.68;97.78;103909.59;5032946;28;20116;-62
2021/12/18 03:39:22;;;;;;;17.17;9.40;;;;;;;6.65;97.73;103900.94;5031062;28;20038;-62
2021/12/18 03:41:48;;;;;;;18.42;10.10;;;;;;;6.66;97.59;103910.56;5032522;28;20042;-62
2021/12/18 03:44:13;;;;;;;16.63;9.40;;;;;;;6.67;97.78;103917.53;5032624;28;20086;-62
2021/12/18 03:46:38;;;;;;;19.42;10.05;;;;;;;6.63;97.45;103913.31;5032847;28;20031;-62
2021/12/18 03:49:04;;;;;;;20.30;10.23;;;;;;;6.62;97.95;103908.94;5032439;28;20100;-62
2021/12/18 03:51:29;;;;;;;20.00;9.98;;;;;;;6.61;97.99;103917.78;5031571;28;20029;-62
2021/12/18 03:53:54;;;;;;;18.77;10.45;;;;;;;6.57;98.10;103917.88;5033618;28;20383;-61
2021/12/18 03:56:20;;;;;;;19.45;10.20;;;;;;;6.58;97.97;103921.41;5032729;28;20037;-62
2021/12/18 03:58:45;;;;;;;18.75;9.82;;;;;;;6.54;98.41;103928.56;5032170;28;20394;-62
2021/12/18 04:01:10;;;;;;;19.30;10.10;;;;;;;6.50;98.15;103921.69;5028768;28;20034;-62
2021/12/18 04:03:36;;;;;;;17.40;9.50;;;;;;;6.53;98.61;103921.56;5032074;28;20036;-62
2021/12/18 04:06:01;;;;;;;18.10;9.50;;;;;;;6.49;98.57;103919.97;5032471;28;20494;-62
2021/12/18 04:08:26;;;;;;;17.77;9.48;;;;;;;6.46;98.27;103922.69;5031643;28;20035;-62
2021/12/18 04:10:52;;;;;;;19.52;9.73;;;;;;;6.50;98.64;103920.84;5023342;28;20435;-61
2021/12/18 04:13:17;;;;;;;18.20;9.65;;;;;;;6.51;98.67;103922.56;5029875;28;20041;-62
2021/12/18 04:15:44;;;;;;;19.73;10.05;;;;;;;6.45;98.99;103913.97;5032101;28;20079;-62
2021/12/18 04:18:09;;;;;;;19.38;9.63;;;;;;;6.48;98.69;103918.25;5032189;28;20386;-62
2021/12/18 04:20:34;;;;;;;17.98;9.27;;;;;;;6.53;98.94;103915.44;5031543;28;20030;-62
2021/12/18 04:22:59;;;;;;;18.42;9.48;;;;;;;6.51;98.96;103918.13;5032277;28;20037;-62
2021/12/18 04:25:25;;;;;;;15.98;8.95;;;;;;;6.53;98.95;103918.94;5032080;28;20041;-62
2021/12/18 04:27:51;;;;;;;17.05;8.75;;;;;;;6.53;98.75;103920.72;5031747;28;20033;-62
2021/12/18 04:30:16;;;;;;;17.25;8.88;;;;;;;6.51;98.80;103922.56;5031060;28;20050;-62
2021/12/18 04:32:41;;;;;;;17.05;9.30;;;;;;;6.50;99.06;103916.41;5032307;28;20040;-62
2021/12/18 04:35:07;;;;;;;18.65;9.25;;;;;;;6.50;98.75;103910.28;5031666;28;20029;-62
2021/12/18 04:37:32;;;;;;;19.35;9.50;;;;;;;6.53;99.15;103920.72;5026447;28;20025;-62
2021/12/18 04:39:58;;;;;;;19.50;9.43;;;;;;;6.53;99.33;103915.44;5030848;28;20087;-62
2021/12/18 04:42:23;;;;;;;19.52;9.13;;;;;;;6.53;98.93;103918.94;5031605;28;20041;-62
2021/12/18 04:44:48;;;;;;;17.13;9.05;;;;;;;6.52;99.09;103919.00;5031671;28;20075;-62
2021/12/18 04:47:14;;;;;;;19.48;9.45;;;;;;;6.47;98.77;103921.81;5030845;28;20029;-62
2021/12/18 04:49:39;;;;;;;17.25;9.10;;;;;;;6.46;98.90;103926.22;5030877;28;20073;-62
2021/12/18 04:52:05;;;;;;;18.60;9.30;;;;;;;6.46;99.34;103926.22;5031297;28;20042;-62
2021/12/18 04:54:30;;;;;;;17.40;9.15;;;;;;;6.44;98.84;103928.06;5031010;28;20040;-62
2021/12/18 04:56:55;;;;;;;18.50;9.18;;;;;;;6.46;99.24;103930.63;5032154;28;20095;-62
2021/12/18 04:59:22;;;;;;;18.33;9.48;;;;;;;6.45;99.13;103929.78;5031174;28;20064;-62
2021/12/18 05:01:47;;;;;;;19.38;9.90;;;;;;;6.45;99.51;103928.91;5029331;28;20025;-61
2021/12/18 05:04:14;;;;;;;16.55;8.88;;;;;;;6.44;99.64;103930.69;5026717;28;20471;-62
2021/12/18 05:06:44;;;;;;;19.83;9.75;;;;;;;6.42;99.38;103929.03;5029872;28;20029;-61
2021/12/18 05:09:10;;;;;;;18.98;9.50;;;;;;;6.40;99.68;103928.22;5028803;28;20032;-62
2021/12/18 05:11:35;;;;;;;18.75;9.73;;;;;;;6.37;100.00;103928.34;5030722;28;20022;-62
2021/12/18 05:14:01;;;;;;;18.83;9.13;;;;;;;6.35;99.92;103931.03;5029468;28;20049;-61
2021/12/18 05:16:27;;;;;;;18.92;9.25;;;;;;;6.35;99.77;103938.09;5029016;28;20021;-62
2021/12/18 05:18:52;;;;;;;19.65;9.57;;;;;;;6.35;99.88;103935.47;5030886;28;20034;-62
2021/12/18 05:21:18;;;;;;;20.70;10.35;;;;;;;6.35;100.00;103944.19;5030493;28;20037;-62
2021/12/18 05:23:43;;;;;;;18.75;9.50;;;;;;;6.36;100.00;103934.53;5029723;28;20033;-62
2021/12/18 05:26:08;;;;;;;19.73;9.50;;;;;;;6.34;99.64;103934.59;5030733;28;20076;-62
2021/12/18 05:28:33;;;;;;;20.27;10.00;;;;;;;6.40;100.00;103936.13;5029295;28;20034;-61
2021/12/18 05:30:59;;;;;;;22.92;10.48;;;;;;;6.40;100.00;103938.75;5030266;28;20065;-62
2021/12/18 05:33:24;;;;;;;21.55;10.70;;;;;;;6.42;100.00;103934.31;5030379;28;20084;-62
2021/12/18 05:35:49;;;;;;;20.48;9.98;;;;;;;6.45;100.00;103939.44;5031006;28;20030;-62
2021/12/18 05:38:15;;;;;;;20.30;10.00;;;;;;;6.46;100.00;103935.88;5024731;28;20083;-62
2021/12/18 05:40:40;;;;;;;23.25;11.27;;;;;;;6.48;100.00;103939.34;5028683;28;20071;-62
2021/12/18 05:43:08;;;;;;;21.08;10.57;;;;;;;6.45;100.00;103924.50;5034042;28;20026;-61
2021/12/18 05:45:35;;;;;;;22.88;10.63;;;;;;;6.48;100.00;103938.47;5034848;28;20497;-62
2021/12/18 05:48:00;;;;;;;24.23;11.52;;;;;;;6.41;99.95;103932.59;5034203;28;20036;-62
2021/12/18 05:50:28;;;;;;;25.17;11.88;;;;;;;6.41;100.00;103933.44;5033402;28;20123;-62
2021/12/18 05:52:54;;;;;;;26.10;12.00;;;;;;;6.35;100.00;103935.47;5034044;28;20489;-61
2021/12/18 05:55:22;;;;;;;22.30;10.80;;;;;;;6.38;100.00;103932.69;5034664;28;20026;-62
2021/12/18 05:57:48;;;;;;;23.00;10.60;;;;;;;6.36;100.00;103939.81;5033464;28;20084;-62
2021/12/18 06:00:14;;;;;;;23.98;11.32;;;;;;;6.39;100.00;103934.41;5033642;28;20029;-61
2021/12/18 06:02:39;;;;;;;23.98;11.20;;;;;;;6.37;100.00;103941.53;5033249;28;20033;-62
2021/12/18 06:05:05;;;;;;;23.90;10.88;;;;;;;6.38;100.00;103940.59;5034110;28;20568;-62
2021/12/18 06:07:38;;;;;;;22.92;11.05;;;;;;;6.38;100.00;103941.47;5034789;28;20498;-62
2021/12/18 06:10:05;;;;;;;22.77;11.82;;;;;;;6.38;100.00;103943.22;5032397;28;20049;-61
2021/12/18 06:12:30;;;;;;;23.65;11.45;;;;;;;6.37;100.00;103941.53;5033652;28;20025;-62
2021/12/18 06:14:55;;;;;;;23.65;11.57;;;;;;;6.39;100.00;103942.31;5033631;28;20041;-62
2021/12/18 06:17:21;;;;;;;23.67;10.40;;;;;;;6.39;100.00;103935.28;5033587;28;20493;-62
2021/12/18 06:19:46;;;;;;;22.55;10.27;;;;;;;6.41;100.00;103932.59;5030882;28;20025;-62
2021/12/18 06:22:11;;;;;;;21.45;10.32;;;;;;;6.42;100.00;103934.31;5033709;28;20056;-61
2021/12/18 06:24:37;;;;;;;23.63;10.50;;;;;;;6.40;100.00;103936.13;5035348;28;20033;-61
2021/12/18 06:27:02;;;;;;;27.10;11.88;;;;;;;6.42;100.00;103934.31;5033979;28;20079;-61
2021/12/18 06:29:28;;;;;;;21.88;10.77;;;;;;;6.44;100.00;103935.97;5033845;28;20056;-62
2021/12/18 06:31:53;;;;;;;22.80;10.77;;;;;;;6.44;100.00;103933.34;5027463;28;20059;-62
2021/12/18 06:34:18;;;;;;;23.15;11.05;;;;;;;6.47;100.00;103932.34;5034638;28;20410;-62
2021/12/18 06:36:44;;;;;;;23.38;11.18;;;;;;;6.48;100.00;103939.34;5027616;28;20025;-61
2021/12/18 06:39:09;;;;;;;25.02;11.43;;;;;;;6.47;100.00;103932.34;5046508;28;20033;-61
2021/12/18 06:41:35;;;;;;;23.60;11.10;;;;;;;6.48;100.00;103934.06;5033706;28;20041;-60
2021/12/18 06:44:00;;;;;;;24.50;11.13;;;;;;;6.49;100.00;103925.25;5032328;28;20033;-61
2021/12/18 06:46:26;;;;;;;23.13;10.52;;;;;;;6.51;100.00;103923.41;5033273;28;20047;-61
2021/12/18 06:48:51;;;;;;;24.35;11.20;;;;;;;6.51;100.00;103933.94;5033372;28;20041;-62
2021/12/18 06:51:18;;;;;;;20.55;9.32;;;;;;;6.48;100.00;103931.44;5031514;28;20418;-62
2021/12/18 06:53:43;;;;;;;21.67;9.30;;;;;;;6.49;100.00;103929.63;5032178;28;20104;-61
2021/12/18 06:56:08;;;;;;;21.02;9.77;;;;;;;6.50;100.00;103926.94;5045093;28;20125;-62
2021/12/18 06:58:34;;;;;;;20.95;9.82;;;;;;;6.50;100.00;103926.13;5032955;28;20025;-62
2021/12/18 07:00:59;;;;;;;22.20;9.65;;;;;;;6.50;100.00;103932.22;5031035;28;20025;-61
2021/12/18 07:03:25;;;;;;;21.98;9.80;;;;;;;6.49;100.00;103934.91;5028510;28;20489;-61
2021/12/18 07:05:51;;;;;;;22.67;10.48;;;;;;;6.46;100.00;103930.63;5029464;28;20049;-61
2021/12/18 07:08:16;;;;;;;20.90;9.93;;;;;;;6.48;100.00;103927.94;5022249;28;20697;-60
2021/12/18 07:10:43;;;;;;;20.08;9.52;;;;;;;6.49;100.00;103925.25;5023478;28;20029;-61
2021/12/18 07:13:08;;;;;;;21.17;9.55;;;;;;;6.53;100.00;103932.13;5022961;28;20040;-61
2021/12/18 07:15:34;;;;;;;24.33;9.77;;;;;;;6.53;100.00;103926.84;5025362;28;20032;-61
2021/12/18 07:18:00;;;;;;;20.60;9.13;;;;;;;6.54;100.00;103922.41;5024856;28;20057;-60
2021/12/18 07:20:27;;;;;;;21.30;9.05;;;;;;;6.53;100.00;103925.97;5023078;28;20037;-61
2021/12/18 07:22:52;;;;;;;19.98;8.85;;;;;;;6.48;100.00;103920.88;5026091;28;20165;-61
2021/12/18 07:25:18;;;;;;;20.80;8.98;;;;;;;6.48;100.00;103923.53;5024050;28;20109;-62
2021/12/18 07:27:44;;;;;;;19.33;8.45;;;;;;;6.45;100.00;103924.50;5026006;28;20068;-62
2021/12/18 07:30:11;;;;;;;18.48;7.97;;;;;;;6.45;100.00;103927.13;5022539;28;20029;-62
2021/12/18 07:32:37;;;;;;;16.83;7.72;;;;;;;6.48;100.00;103925.28;5024751;28;20064;-62
2021/12/18 07:35:03;;;;;;;18.20;8.27;;;;;;;6.44;100.00;103922.78;5022693;28;20030;-62
2021/12/18 07:37:28;;;;;;;18.85;8.60;;;;;;;6.45;100.00;103921.88;5025641;28;20021;-62
2021/12/18 07:39:54;;;;;;;21.27;8.57;;;;;;;6.44;100.00;103927.19;5025996;28;20501;-62
2021/12/18 07:42:20;;;;;;;20.15;8.68;;;;;;;6.43;100.00;103930.75;5026764;28;20053;-62
2021/12/18 07:44:45;;;;;;;17.63;7.88;;;;;;;6.41;100.00;103938.69;5023703;28;20129;-60
2021/12/18 07:47:11;;;;;;;17.70;7.85;;;;;;;6.39;100.00;103935.28;5023302;28;20032;-61
2021/12/18 07:49:37;;;;;;;19.45;8.40;;;;;;;6.40;100.00;103938.75;5022216;28;20482;-61
2021/12/18 07:52:04;;;;;;;18.95;8.20;;;;;;;6.39;100.00;103939.69;5024253;28;20033;-61
2021/12/18 07:54:29;;;;;;;20.50;8.77;;;;;;;6.44;100.00;103938.59;5022255;28;20486;-61
2021/12/18 07:56:55;;;;;;;20.63;8.38;;;;;;;6.45;100.00;103939.44;5025307;28;20044;-61
2021/12/18 07:59:20;;;;;;;21.20;9.00;;;;;;;6.46;100.00;103935.88;5021935;28;20045;-61
2021/12/18 08:01:46;;;;;;;20.88;8.95;;;;;;;6.45;100.00;103939.44;5022334;28;20067;-61
2021/12/18 08:04:11;;;;;;;21.58;9.52;;;;;;;6.46;100.00;103941.16;5023529;28;20041;-61
2021/12/18 08:06:36;;;;;;;19.63;8.50;;;;;;;6.45;100.00;103936.81;5015713;28;20045;-61
2021/12/18 08:09:02;;;;;;;23.88;9.43;;;;;;;6.42;100.00;103934.31;5019371;28;20057;-61
2021/12/18 08:11:27;;;;;;;21.48;9.48;;;;;;;6.45;100.00;103942.06;5022554;28;20033;-61
2021/12/18 08:13:52;;;;;;;23.13;9.40;;;;;;;6.41;100.00;103932.59;5022047;28;20466;-61
2021/12/18 08:16:18;;;;;;;18.65;7.82;;;;;;;6.43;100.00;103936.00;5020770;28;20044;-61
2021/12/18 08:18:43;;;;;;;20.08;8.25;;;;;;;6.36;100.00;103942.44;5023403;28;20032;-61
2021/12/18 08:21:08;;;;;;;19.48;7.60;;;;;;;6.32;100.00;103941.69;5024325;28;20030;-61
2021/12/18 08:23:34;;;;;;;18.33;6.88;;;;;;;6.35;100.00;103938.09;5026941;28;20110;-61
2021/12/18 08:25:59;;;;;;;15.80;6.63;;;;;;;6.33;100.00;103943.41;5025074;28;20026;-61
2021/12/18 08:28:24;;;;;;;15.25;5.97;;;;;;;6.33;100.00;103941.63;5024304;28;20071;-60
2021/12/18 08:30:49;;;;;;;15.52;6.07;;;;;;;6.32;100.00;103942.53;5025870;28;20084;-58
2021/12/18 08:33:15;;;;;;;16.48;6.60;;;;;;;6.29;100.00;103937.41;5025542;28;20100;-58
2021/12/18 08:35:40;;;;;;;15.00;6.45;;;;;;;6.35;100.00;103938.09;5024349;28;20063;-56
2021/12/18 08:38:06;;;;;;;14.25;6.20;;;;;;;6.38;100.00;103937.97;5028802;28;20677;-60
2021/12/18 08:40:32;;;;;;;14.85;5.65;;;;;;;6.38;100.00;103930.06;5029288;28;20041;-60
2021/12/18 08:42:58;;;;;;;14.88;6.15;;;;;;;6.39;100.00;103934.41;5029920;28;20116;-59
2021/12/18 08:45:24;;;;;;;13.98;5.97;;;;;;;6.41;100.00;103935.22;5026731;28;20033;-60
2021/12/18 08:47:49;;;;;;;14.63;5.60;;;;;;;6.47;100.00;103937.63;5027123;28;20033;-59
2021/12/18 08:50:17;;;;;;;15.48;6.03;;;;;;;6.44;100.00;103932.47;5030945;28;20470;-60
2021/12/18 08:52:43;;;;;;;16.38;6.30;;;;;;;6.49;100.00;103938.41;5030246;28;20353;-60
2021/12/18 08:55:09;;;;;;;15.43;6.05;;;;;;;6.49;100.00;103940.19;5030448;28;20025;-59
2021/12/18 08:57:34;;;;;;;15.15;6.07;;;;;;;6.50;100.00;103932.22;5027745;28;20084;-60
2021/12/18 09:00:00;;;;;;;11.52;5.40;;;;;;;6.51;100.00;103933.94;5028014;28;20045;-59
2021/12/18 09:02:25;;;;;;;13.50;5.90;;;;;;;6.48;100.00;103944.63;5027875;28;20026;-59
2021/12/18 09:04:51;;;;;;;14.68;5.95;;;;;;;6.49;100.00;103946.34;5028025;28;20461;-59
2021/12/18 09:07:17;;;;;;;11.07;4.93;;;;;;;6.46;100.00;103942.03;5028855;28;20541;-60
2021/12/18 09:09:42;;;;;;;12.45;5.13;;;;;;;6.43;100.00;103946.56;5029628;28;20025;-59
2021/12/18 09:12:10;;;;;;;13.00;5.05;;;;;;;6.40;100.00;103933.47;5030641;28;20338;-59
2021/12/18 09:14:35;;;;;;;14.50;5.95;;;;;;;6.45;100.00;103945.59;5029984;28;20080;-59
2021/12/18 09:17:00;;;;;;;15.10;5.47;;;;;;;6.46;100.00;103942.03;5029295;28;20482;-60
2021/12/18 09:19:26;;;;;;;13.98;5.30;;;;;;;6.47;100.00;103940.28;5030448;28;20470;-60
2021/12/18 09:21:51;;;;;;;14.57;5.85;;;;;;;6.48;100.00;103934.06;5028687;28;20460;-59
2021/12/18 09:24:16;;;;;;;15.07;6.05;;;;;;;6.49;100.00;103935.78;5029777;28;20075;-59
2021/12/18 09:26:42;;;;;;;14.48;6.13;;;;;;;6.49;100.00;103930.50;5024995;28;20060;-59
2021/12/18 09:29:07;;;;;;;15.27;6.15;;;;;;;6.55;100.00;103943.47;5027949;28;20033;-60
2021/12/18 09:31:32;;;;;;;17.13;6.60;;;;;;;6.56;100.00;103934.63;5030283;28;20034;-60
2021/12/18 09:33:57;;;;;;;17.25;7.32;;;;;;;6.57;100.00;103938.97;5027900;28;20021;-61
2021/12/18 09:36:23;;;;;;;15.85;7.13;;;;;;;6.59;100.00;103941.56;5028956;28;20047;-60
2021/12/18 09:38:49;;;;;;;16.48;7.05;;;;;;;6.61;100.00;103939.72;5028376;28;20522;-60
2021/12/18 09:41:14;;;;;;;18.90;7.25;;;;;;;6.58;100.00;103945.97;5031280;28;20065;-60
2021/12/18 09:43:40;;;;;;;16.58;6.18;;;;;;;6.63;100.00;103937.03;5027121;28;20104;-60
2021/12/18 09:46:08;;;;;;;15.65;6.05;;;;;;;6.61;100.00;103933.59;5027686;28;20035;-60
2021/12/18 09:48:34;;;;;;;15.82;6.25;;;;;;;6.63;100.00;103937.03;5026215;28;20033;-60
2021/12/18 09:51:06;;;;;;;15.60;6.05;;;;;;;6.65;100.00;103935.22;5023304;28;20109;-61
2021/12/18 09:53:32;;;;;;;13.73;5.60;;;;;;;6.62;100.00;103935.31;5026774;28;20382;-60
2021/12/18 09:55:57;;;;;;;15.57;6.60;;;;;;;6.56;100.00;103934.63;5028865;28;20025;-60
2021/12/18 09:58:22;;;;;;;15.98;6.40;;;;;;;6.54;100.00;103928.56;5024336;28;20031;-59
2021/12/18 10:00:48;;;;;;;13.10;5.55;;;;;;;6.50;100.00;103928.75;5021301;28;20504;-60
2021/12/18 10:03:13;;;;;;;10.32;5.20;;;;;;;6.49;100.00;103919.97;5025741;28;20035;-60
2021/12/18 10:05:38;;;;;;;11.57;5.40;;;;;;;6.44;100.00;103922.78;5025696;28;20053;-60
2021/12/18 10:08:10;;;;;;;12.20;5.13;;;;;;;6.46;100.00;103920.06;5024167;28;20563;-59
2021/12/18 10:10:37;;;;;;;13.40;5.93;;;;;;;6.46;100.00;103915.66;5020560;28;20379;-60
2021/12/18 10:13:08;;;;;;;13.18;5.80;;;;;;;6.45;100.00;103913.97;5027582;28;20136;-59
2021/12/18 10:15:35;;;;;;;12.88;5.68;;;;;;;6.48;100.00;103918.25;5027048;28;20495;-60
2021/12/18 10:18:11;;;;;;;11.15;4.93;;;;;;;6.51;100.00;103918.13;5028420;28;20033;-59
2021/12/18 10:20:39;;;;;;;17.08;5.20;;;;;;;6.51;100.00;103912.84;5027288;28;20100;-60
2021/12/18 10:23:05;;;;;;;13.30;5.25;;;;;;;6.53;100.00;103908.41;5028933;28;20033;-59
2021/12/18 10:25:42;;;;;;;10.48;4.97;;;;;;;6.55;100.00;103909.19;5028702;28;20040;-59
2021/12/18 10:28:21;;;;;;;11.70;5.55;;;;;;;6.44;100.00;103906.09;5028166;28;20414;-60
2021/12/18 10:30:49;;;;;;;10.73;4.78;;;;;;;6.38;100.00;103914.25;5031896;28;20022;-60
2021/12/18 10:33:15;;;;;;;10.40;4.50;;;;;;;6.33;100.00;103907.34;5032354;28;20038;-60
2021/12/18 10:35:51;;;;;;;11.80;4.70;;;;;;;6.29;100.00;103908.41;5036016;28;20025;-59
2021/12/18 10:38:34;;;;;;;9.23;4.20;;;;;;;6.26;100.00;103905.88;5041786;28;20324;-59
2021/12/18 10:40:59;;;;;;;10.15;4.25;;;;;;;6.31;100.00;103906.56;5033100;28;20507;-60
2021/12/18 10:43:24;;;;;;;8.63;4.10;;;;;;;6.22;100.00;103906.88;5030385;28;20036;-60
2021/12/18 10:45:50;;;;;;;7.97;4.03;;;;;;;6.22;100.00;103906.88;5030373;28;20029;-59
2021/12/18 10:48:16;;;;;;;6.95;3.70;;;;;;;6.31;100.00;103906.56;5032125;28;20037;-60
2021/12/18 10:50:43;;;;;;;8.00;3.97;;;;;;;6.25;100.00;103901.53;5030689;28;20025;-59
2021/12/18 10:53:13;;;;;;;7.63;3.78;;;;;;;6.35;100.00;103906.47;5022119;28;20026;-59
2021/12/18 10:55:48;;;;;;;6.28;3.53;;;;;;;6.35;100.00;103907.31;5028372;28;20041;-61
2021/12/18 10:58:35;;;;;;;7.60;3.67;;;;;;;6.32;100.00;103895.09;5024462;28;20068;-60
2021/12/18 11:01:07;;;;;;;6.72;3.53;;;;;;;6.32;100.00;103897.72;5027391;28;20087;-59
2021/12/18 11:03:43;;;;;;;5.35;3.20;;;;;;;6.36;100.00;103892.34;5026891;28;20033;-59
2021/12/18 11:06:28;;;;;;;6.30;3.38;;;;;;;6.46;100.00;103898.97;5026867;28;20052;-58
2021/12/18 11:09:04;;;;;;;4.95;3.10;;;;;;;6.50;100.00;103895.31;5026094;28;20462;-58
2021/12/18 11:14:14;;;;;;;6.20;3.70;;;;;;;6.47;99.35;103911.25;5026871;28;20410;-58
2021/12/18 11:16:41;;;;;;;5.45;3.42;;;;;;;6.49;100.00;103896.25;5025402;28;20037;-58
2021/12/18 11:19:13;;;;;;;6.57;3.95;;;;;;;6.44;100.00;103895.56;5024057;28;20033;-57
2021/12/18 11:21:42;;;;;;;6.47;4.03;;;;;;;6.50;100.00;103894.47;5024322;28;20018;-58
2021/12/18 11:24:09;;;;;;;10.43;5.07;;;;;;;6.49;100.00;103893.59;5024881;28;20382;-59
2021/12/18 11:26:41;;;;;;;8.32;4.65;;;;;;;6.47;100.00;103890.19;5021611;28;20044;-59
2021/12/18 11:29:11;;;;;;;8.07;4.60;;;;;;;6.52;100.00;103887.34;5021732;28;20438;-59
2021/12/18 11:31:37;;;;;;;9.18;4.95;;;;;;;6.54;100.00;103891.66;5024220;28;20499;-58
2021/12/18 11:34:05;;;;;;;10.07;5.30;;;;;;;6.50;100.00;103887.41;5024633;28;20534;-57
2021/12/18 11:36:30;;;;;;;9.63;5.28;;;;;;;6.53;100.00;103889.94;5027090;28;20033;-65
2021/12/18 11:38:55;;;;;;;10.35;5.63;;;;;;;6.52;100.00;103885.56;5026100;28;20041;-61
2021/12/18 11:41:21;;;;;;;11.93;5.70;;;;;;;6.50;100.00;103881.28;5022526;28;20037;-61
2021/12/18 11:43:47;;;;;;;11.45;5.85;;;;;;;6.41;100.00;103879.88;5024273;28;20434;-58
2021/12/18 11:46:31;;;;;;;12.75;5.53;;;;;;;6.36;100.00;103884.44;5022306;28;20392;-59
2021/12/18 11:49:03;;;;;;;15.18;5.80;;;;;;;6.17;100.00;103882.50;5025076;28;20033;-58
2021/12/18 11:51:29;;;;;;;12.32;5.75;;;;;;;6.19;100.00;103891.22;5023799;28;20044;-58
2021/12/18 11:53:55;;;;;;;10.63;5.50;;;;;;;6.14;100.00;103878.22;5021688;28;20345;-58
2021/12/18 11:56:21;;;;;;;11.32;5.45;;;;;;;6.03;100.00;103873.31;5026758;28;20120;-60
2021/12/18 11:58:48;;;;;;;9.80;5.25;;;;;;;5.98;100.00;103871.75;5021608;28;20136;-62
2021/12/18 12:01:25;;;;;;;10.98;5.10;;;;;;;6.04;100.00;103867.16;5023858;28;20026;-62
2021/12/18 12:03:50;;;;;;;9.32;4.93;;;;;;;5.99;100.00;103861.16;5025974;28;20028;-62